Time;durP1;ratioP1;P1;durP2;ratioP2;P2;SDS_P1;SDS_P2;PMS_P1;PMS_P2;Temp;Humidity;BMP_temperature;BMP_pressure;BME280_temperature;BME280_humidity;BME280_pressure;Samples;Min_cycle;Max_cycle;Signal;HPM_P1;HPM_P2
2021/08/22 00:01:21;;;;;;;6.60;6.00;;;19.90;84.00;;;;;;5075221;28;20021;-75
2021/08/22 00:03:47;;;;;;;7.15;6.55;;;19.90;84.10;;;;;;5074975;28;20017;-75
2021/08/22 00:06:13;;;;;;;6.43;5.82;;;19.90;84.20;;;;;;5056966;28;20033;-75
2021/08/22 00:08:39;;;;;;;5.88;5.32;;;19.80;84.30;;;;;;5074819;28;20469;-75
2021/08/22 00:11:05;;;;;;;7.00;5.55;;;19.80;84.50;;;;;;5090606;28;20381;-74
2021/08/22 00:13:31;;;;;;;6.72;6.10;;;19.90;84.50;;;;;;5056915;28;20024;-75
2021/08/22 00:15:56;;;;;;;6.30;5.70;;;19.90;84.50;;;;;;5074639;28;20423;-74
2021/08/22 00:18:22;;;;;;;6.57;5.95;;;19.90;84.50;;;;;;5074676;28;20089;-75
2021/08/22 00:20:47;;;;;;;6.13;5.55;;;19.90;84.50;;;;;;5056666;28;20028;-76
2021/08/22 00:23:13;;;;;;;7.18;6.47;;;19.90;84.50;;;;;;5056585;28;20020;-75
2021/08/22 00:25:39;;;;;;;5.82;5.25;;;19.90;84.60;;;;;;5074485;28;20033;-75
2021/08/22 00:28:04;;;;;;;6.60;5.85;;;19.90;84.70;;;;;;5056982;28;20025;-75
2021/08/22 00:30:30;;;;;;;6.20;5.57;;;19.90;84.80;;;;;;5074513;28;20035;-75
2021/08/22 00:32:55;;;;;;;6.53;5.60;;;19.90;84.70;;;;;;5074545;28;20025;-76
2021/08/22 00:35:21;;;;;;;5.55;5.05;;;19.90;84.80;;;;;;5056274;28;20016;-78
2021/08/22 00:37:47;;;;;;;5.88;5.28;;;19.90;84.80;;;;;;5056400;28;20464;-78
2021/08/22 00:40:12;;;;;;;6.45;5.85;;;19.90;84.70;;;;;;5056691;28;20020;-79
2021/08/22 00:42:38;;;;;;;6.47;5.88;;;20.00;84.80;;;;;;5056627;28;20427;-78
2021/08/22 00:45:06;;;;;;;7.35;6.65;;;20.00;84.90;;;;;;5056225;28;20028;-79
2021/08/22 00:47:32;;;;;;;6.60;6.00;;;20.00;84.90;;;;;;5056331;28;20023;-78
2021/08/22 00:49:59;;;;;;;6.22;5.63;;;19.90;84.90;;;;;;5056261;28;20016;-78
2021/08/22 00:52:27;;;;;;;7.07;6.38;;;19.90;85.00;;;;;;5056325;28;20017;-78
2021/08/22 00:54:53;;;;;;;6.47;5.85;;;19.90;85.00;;;;;;5074190;28;20479;-78
2021/08/22 00:57:18;;;;;;;6.18;5.60;;;19.90;85.00;;;;;;5056576;28;20051;-78
2021/08/22 00:59:44;;;;;;;6.43;5.82;;;19.90;85.10;;;;;;5056001;28;20028;-78
2021/08/22 01:02:24;;;;;;;6.13;5.63;;;19.90;85.10;;;;;;5055974;28;20033;-79
2021/08/22 01:05:00;;;;;;;6.60;5.78;;;19.90;85.10;;;;;;5055894;28;20024;-78
2021/08/22 01:07:38;;;;;;;6.53;5.88;;;19.90;85.20;;;;;;5089507;28;20024;-79
2021/08/22 01:10:08;;;;;;;6.63;5.80;;;19.90;85.20;;;;;;5089275;28;20070;-79
2021/08/22 01:12:40;;;;;;;6.50;5.90;;;19.90;85.30;;;;;;5088943;28;20020;-78
2021/08/22 01:15:09;;;;;;;6.40;5.80;;;19.90;85.30;;;;;;5073593;28;20028;-79
2021/08/22 01:17:41;;;;;;;6.70;5.72;;;19.90;85.30;;;;;;5073805;28;20480;-79
2021/08/22 01:20:25;;;;;;;6.25;5.65;;;19.90;85.30;;;;;;5073798;28;20099;-79
2021/08/22 01:22:52;;;;;;;7.28;6.57;;;19.90;85.20;;;;;;5089269;28;20589;-79
2021/08/22 01:25:20;;;;;;;7.13;6.43;;;19.90;85.20;;;;;;5088886;28;20125;-79
2021/08/22 01:27:46;;;;;;;8.23;7.43;;;19.90;85.20;;;;;;5088966;28;20477;-79
2021/08/22 01:30:15;;;;;;;7.15;6.38;;;19.90;85.20;;;;;;5055547;28;20071;-79
2021/08/22 01:32:46;;;;;;;8.07;7.28;;;19.90;85.30;;;;;;5073436;28;20029;-79
2021/08/22 01:35:13;;;;;;;7.38;6.68;;;19.90;85.30;;;;;;5055452;28;20032;-79
2021/08/22 01:37:41;;;;;;;6.88;6.28;;;19.90;85.40;;;;;;5055394;28;20020;-79
2021/08/22 01:40:09;;;;;;;6.78;6.07;;;19.80;85.30;;;;;;5088816;28;20031;-78
2021/08/22 01:42:37;;;;;;;7.40;6.40;;;19.80;85.40;;;;;;5073540;28;20480;-79
2021/08/22 01:45:05;;;;;;;6.82;6.13;;;19.80;85.50;;;;;;5055109;28;20111;-79
2021/08/22 01:47:31;;;;;;;5.78;5.28;;;19.80;85.50;;;;;;5055134;28;20017;-79
2021/08/22 01:49:57;;;;;;;5.80;5.20;;;19.80;85.40;;;;;;5055197;28;20033;-78
2021/08/22 01:52:24;;;;;;;6.10;5.50;;;19.80;85.50;;;;;;5073227;28;20048;-79
2021/08/22 01:54:49;;;;;;;5.63;5.13;;;19.80;85.40;;;;;;5055208;28;20085;-79
2021/08/22 01:57:15;;;;;;;5.80;5.30;;;19.80;85.40;;;;;;5073017;28;20051;-78
2021/08/22 01:59:41;;;;;;;5.60;5.10;;;19.80;85.50;;;;;;5088564;28;20438;-79
2021/08/22 02:02:06;;;;;;;5.40;4.90;;;19.70;85.50;;;;;;5054985;28;20073;-79
2021/08/22 02:05:13;;;;;;;5.25;4.70;;;19.70;85.50;;;;;;5073324;28;20065;-79
2021/08/22 02:07:39;;;;;;;4.95;4.55;;;19.70;85.40;;;;;;5028282;28;20040;-78
2021/08/22 02:10:16;;;;;;;6.00;4.95;;;19.70;85.40;;;;;;5054856;28;20025;-79
2021/08/22 02:12:44;;;;;;;5.65;4.97;;;19.60;85.50;;;;;;5055080;28;20509;-78
2021/08/22 02:15:13;;;;;;;5.07;4.68;;;19.60;85.50;;;;;;5054836;28;20059;-79
2021/08/22 02:17:45;;;;;;;6.22;4.82;;;19.60;85.70;;;;;;5072867;28;20021;-78
2021/08/22 02:20:11;;;;;;;6.30;5.70;;;19.60;85.70;;;;;;5072846;28;20020;-79
2021/08/22 02:22:41;;;;;;;5.82;5.22;;;19.60;85.70;;;;;;5054528;28;20032;-79
2021/08/22 02:25:08;;;;;;;5.80;5.28;;;19.60;85.60;;;;;;5047841;28;20487;-79
2021/08/22 02:27:36;;;;;;;6.50;5.80;;;19.60;85.70;;;;;;5032812;28;20466;-78
2021/08/22 02:30:02;;;;;;;7.00;6.35;;;19.70;85.70;;;;;;5064783;28;20021;-78
2021/08/22 02:32:28;;;;;;;6.90;6.30;;;19.70;85.70;;;;;;5065089;28;20079;-78
2021/08/22 02:34:54;;;;;;;7.90;7.18;;;19.70;86.30;;;;;;5064680;28;20530;-78
2021/08/22 02:37:19;;;;;;;7.13;6.43;;;19.70;85.70;;;;;;5064698;28;20052;-78
2021/08/22 02:39:47;;;;;;;7.20;6.50;;;19.70;85.70;;;;;;5064406;28;20028;-79
2021/08/22 02:42:15;;;;;;;7.10;6.40;;;19.60;85.80;;;;;;5064725;28;20071;-78
2021/08/22 02:44:40;;;;;;;7.05;6.45;;;19.60;85.90;;;;;;5064678;28;20486;-79
2021/08/22 02:47:06;;;;;;;7.38;6.68;;;19.60;85.90;;;;;;5032837;28;20049;-78
2021/08/22 02:49:32;;;;;;;8.73;7.22;;;19.60;85.90;;;;;;5032593;28;20017;-78
2021/08/22 02:51:57;;;;;;;8.20;7.32;;;19.60;85.90;;;;;;5064572;28;20022;-78
2021/08/22 02:54:23;;;;;;;8.30;7.43;;;19.60;85.90;;;;;;5032604;28;20060;-78
2021/08/22 02:56:48;;;;;;;9.82;8.50;;;19.50;86.00;;;;;;5032436;28;20523;-78
2021/08/22 02:59:14;;;;;;;8.25;7.45;;;19.50;86.00;;;;;;5064444;28;20108;-78
2021/08/22 03:01:40;;;;;;;7.63;6.93;;;19.50;86.10;;;;;;5032371;28;20021;-78
2021/08/22 03:04:06;;;;;;;6.75;6.13;;;19.50;86.20;;;;;;5064354;28;20022;-78
2021/08/22 03:06:31;;;;;;;8.32;7.50;;;19.40;86.10;;;;;;5064359;28;20120;-78
2021/08/22 03:08:57;;;;;;;7.85;7.05;;;19.50;86.10;;;;;;5030941;28;20013;-78
2021/08/22 03:11:22;;;;;;;8.38;7.50;;;19.40;86.00;;;;;;5064294;28;20067;-78
2021/08/22 03:13:49;;;;;;;8.23;7.43;;;19.40;86.10;;;;;;5032070;28;20141;-78
2021/08/22 03:16:15;;;;;;;7.45;6.75;;;19.30;86.30;;;;;;5064198;28;20057;-78
2021/08/22 03:18:41;;;;;;;8.10;7.30;;;19.20;86.40;;;;;;5064280;28;20029;-78
2021/08/22 03:21:07;;;;;;;8.02;7.22;;;19.20;86.50;;;;;;5064117;28;20033;-78
2021/08/22 03:23:32;;;;;;;8.18;7.40;;;19.20;86.50;;;;;;5030872;28;20046;-78
2021/08/22 03:25:58;;;;;;;8.50;7.70;;;19.20;86.60;;;;;;5064053;28;20045;-78
2021/08/22 03:28:25;;;;;;;7.90;7.10;;;19.20;86.60;;;;;;5032077;28;20389;-78
2021/08/22 03:30:52;;;;;;;8.90;8.00;;;19.20;86.60;;;;;;5064156;28;20017;-78
2021/08/22 03:33:19;;;;;;;8.40;6.75;;;19.20;86.60;;;;;;5030746;28;20021;-78
2021/08/22 03:35:45;;;;;;;8.60;7.70;;;19.20;86.60;;;;;;5066994;28;20032;-78
2021/08/22 03:38:11;;;;;;;9.20;8.30;;;19.20;86.70;;;;;;5067699;28;20112;-78
2021/08/22 03:40:36;;;;;;;8.40;7.30;;;19.20;86.60;;;;;;5067625;28;20021;-78
2021/08/22 03:43:02;;;;;;;8.60;7.70;;;19.20;86.60;;;;;;5067537;28;20029;-78
2021/08/22 03:45:27;;;;;;;8.40;7.60;;;19.20;86.60;;;;;;5067522;28;20025;-78
2021/08/22 03:47:53;;;;;;;9.85;8.85;;;19.30;86.60;;;;;;5067477;28;20022;-78
2021/08/22 03:50:19;;;;;;;9.23;8.32;;;19.20;86.50;;;;;;5067563;28;20075;-78
2021/08/22 03:52:47;;;;;;;8.77;7.90;;;19.20;86.60;;;;;;5067414;28;20033;-78
2021/08/22 03:55:14;;;;;;;8.88;7.60;;;19.20;86.70;;;;;;5067365;28;20017;-78
2021/08/22 03:57:39;;;;;;;8.70;7.80;;;19.20;86.70;;;;;;5067452;28;20032;-78
2021/08/22 04:00:06;;;;;;;10.50;9.35;;;19.20;86.70;;;;;;5035273;28;20021;-78
2021/08/22 04:02:31;;;;;;;9.57;8.57;;;19.10;86.60;;;;;;5067301;28;20149;-78
2021/08/22 04:04:59;;;;;;;10.07;8.25;;;19.10;86.70;;;;;;5034124;28;20232;-78
2021/08/22 04:07:25;;;;;;;8.90;8.00;;;19.10;86.70;;;;;;5067480;28;20496;-78
2021/08/22 04:09:50;;;;;;;10.13;8.70;;;19.10;86.80;;;;;;5035218;28;20026;-78
2021/08/22 04:12:16;;;;;;;11.25;9.55;;;19.00;86.70;;;;;;5066914;28;20052;-78
2021/08/22 04:14:42;;;;;;;11.25;9.73;;;19.00;86.70;;;;;;5033667;28;20049;-78
2021/08/22 04:17:07;;;;;;;11.65;9.20;;;19.10;86.90;;;;;;5033650;28;20029;-78
2021/08/22 04:19:33;;;;;;;11.25;9.30;;;19.00;86.90;;;;;;5067128;28;20569;-78
2021/08/22 04:21:59;;;;;;;10.77;8.85;;;19.00;86.90;;;;;;5033869;28;20071;-78
2021/08/22 04:24:24;;;;;;;9.50;8.57;;;19.00;86.90;;;;;;5066813;28;20374;-78
2021/08/22 04:26:50;;;;;;;10.00;8.85;;;19.00;86.90;;;;;;5066777;28;20064;-78
2021/08/22 04:29:16;;;;;;;10.45;9.00;;;19.00;86.90;;;;;;5066742;28;20026;-78
2021/08/22 04:31:41;;;;;;;11.98;9.60;;;19.10;86.90;;;;;;5034646;28;20022;-78
2021/08/22 04:34:07;;;;;;;11.43;10.00;;;19.00;86.80;;;;;;5033629;28;20448;-78
2021/08/22 04:36:36;;;;;;;13.57;10.73;;;19.00;86.90;;;;;;5033310;28;20032;-78
2021/08/22 04:39:01;;;;;;;11.48;9.98;;;19.00;86.90;;;;;;5033297;28;20140;-77
2021/08/22 04:41:27;;;;;;;11.52;10.27;;;19.00;86.90;;;;;;5034683;28;20520;-78
2021/08/22 04:43:53;;;;;;;12.70;10.98;;;19.00;87.00;;;;;;5033056;28;20389;-78
2021/08/22 04:46:20;;;;;;;10.70;9.60;;;18.90;87.00;;;;;;5034114;28;20074;-78
2021/08/22 04:48:46;;;;;;;11.13;9.93;;;19.00;87.10;;;;;;5034399;28;20021;-78
2021/08/22 04:51:11;;;;;;;12.70;10.02;;;18.90;87.00;;;;;;5066234;28;20026;-78
2021/08/22 04:53:37;;;;;;;13.77;10.75;;;19.00;87.00;;;;;;5032991;28;20018;-78
2021/08/22 04:56:03;;;;;;;11.93;9.77;;;18.90;87.00;;;;;;5032864;28;20033;-78
2021/08/22 04:58:28;;;;;;;11.68;10.20;;;18.90;87.00;;;;;;5066211;28;20017;-78
2021/08/22 05:00:54;;;;;;;12.40;9.90;;;18.90;87.00;;;;;;5032883;28;20053;-78
2021/08/22 05:03:19;;;;;;;11.43;10.23;;;18.90;87.00;;;;;;5065969;28;20021;-78
2021/08/22 05:05:45;;;;;;;11.98;9.38;;;18.90;87.00;;;;;;5032590;28;20038;-78
2021/08/22 05:08:11;;;;;;;13.10;10.88;;;18.90;87.00;;;;;;5065966;28;20017;-78
2021/08/22 05:10:36;;;;;;;12.50;11.20;;;18.90;87.00;;;;;;5032590;28;20032;-78
2021/08/22 05:13:02;;;;;;;12.30;10.73;;;18.80;87.30;;;;;;5033969;28;20028;-78
2021/08/22 05:15:28;;;;;;;13.32;10.43;;;18.90;87.10;;;;;;5032662;28;20030;-78
2021/08/22 05:17:53;;;;;;;14.13;11.30;;;18.80;87.10;;;;;;5032653;28;20022;-78
2021/08/22 05:20:19;;;;;;;14.65;11.52;;;18.90;87.10;;;;;;5034068;28;20512;-79
2021/08/22 05:22:46;;;;;;;14.10;11.18;;;18.80;87.10;;;;;;5032344;28;20049;-78
2021/08/22 05:25:11;;;;;;;14.07;11.73;;;18.90;87.20;;;;;;5032272;28;20081;-79
2021/08/22 05:27:37;;;;;;;12.38;10.65;;;18.90;87.20;;;;;;5033690;28;20501;-78
2021/08/22 05:30:03;;;;;;;13.25;11.45;;;18.90;87.20;;;;;;5032300;28;20362;-78
2021/08/22 05:32:29;;;;;;;15.23;11.68;;;18.90;87.20;;;;;;5032215;28;20017;-78
2021/08/22 05:34:54;;;;;;;13.30;11.00;;;18.90;87.20;;;;;;5032440;28;20025;-79
2021/08/22 05:37:20;;;;;;;15.32;11.52;;;18.90;87.80;;;;;;5032151;28;20382;-78
2021/08/22 05:39:46;;;;;;;14.65;12.60;;;19.00;87.20;;;;;;5032114;28;20025;-79
2021/08/22 05:42:12;;;;;;;15.75;11.85;;;19.00;87.10;;;;;;5033382;28;20037;-78
2021/08/22 05:44:37;;;;;;;13.70;11.15;;;19.00;87.10;;;;;;5033303;28;20037;-79
2021/08/22 05:47:03;;;;;;;13.63;11.27;;;19.00;87.10;;;;;;5033163;28;20109;-79
2021/08/22 05:49:30;;;;;;;13.30;11.52;;;19.00;87.10;;;;;;5033273;28;20101;-79
2021/08/22 05:51:55;;;;;;;15.07;12.30;;;19.10;87.10;;;;;;5031898;28;20025;-79
2021/08/22 05:54:21;;;;;;;16.40;12.45;;;19.20;87.00;;;;;;5032011;28;20028;-78
2021/08/22 05:56:47;;;;;;;16.50;13.48;;;19.20;86.90;;;;;;5031423;28;20028;-78
2021/08/22 05:59:12;;;;;;;15.13;12.32;;;19.20;86.90;;;;;;5032010;28;20442;-78
2021/08/22 06:01:38;;;;;;;11.52;10.27;;;19.20;86.90;;;;;;5031812;28;20116;-78
2021/08/22 06:04:04;;;;;;;14.98;12.52;;;19.20;86.90;;;;;;5031821;28;20025;-79
2021/08/22 06:06:29;;;;;;;17.67;13.45;;;19.30;86.80;;;;;;5031587;28;20048;-78
2021/08/22 06:08:55;;;;;;;17.05;13.48;;;19.30;86.80;;;;;;5032915;28;20044;-78
2021/08/22 06:11:21;;;;;;;13.55;11.20;;;19.30;86.70;;;;;;5031581;28;20164;-79
2021/08/22 06:13:46;;;;;;;14.35;12.85;;;19.40;86.70;;;;;;5031627;28;20021;-79
2021/08/22 06:16:12;;;;;;;15.57;13.30;;;19.40;86.70;;;;;;5032814;28;20030;-79
2021/08/22 06:18:38;;;;;;;15.48;12.52;;;19.40;86.60;;;;;;5033164;28;20022;-78
2021/08/22 06:21:04;;;;;;;15.63;13.13;;;19.50;86.50;;;;;;5031607;28;20136;-79
2021/08/22 06:23:29;;;;;;;15.48;13.02;;;19.50;86.40;;;;;;5031516;28;20022;-78
2021/08/22 06:25:55;;;;;;;14.20;12.25;;;19.50;86.50;;;;;;5031392;28;20060;-79
2021/08/22 06:28:20;;;;;;;19.58;14.52;;;19.50;86.40;;;;;;5031518;28;20032;-79
2021/08/22 06:30:46;;;;;;;18.58;13.20;;;19.60;86.40;;;;;;5031557;28;20022;-79
2021/08/22 06:33:12;;;;;;;16.08;13.25;;;19.60;86.40;;;;;;5031377;28;20096;-79
2021/08/22 06:35:37;;;;;;;17.00;14.00;;;19.60;86.40;;;;;;5031409;28;20056;-79
2021/08/22 06:38:03;;;;;;;16.50;13.13;;;19.60;86.20;;;;;;5032599;28;20034;-79
2021/08/22 06:40:29;;;;;;;14.30;12.05;;;19.60;86.30;;;;;;5031227;28;20036;-78
2021/08/22 06:42:54;;;;;;;14.75;12.70;;;19.60;86.20;;;;;;5031290;28;20079;-79
2021/08/22 06:45:20;;;;;;;14.10;12.20;;;19.60;86.20;;;;;;5032506;28;20026;-79
2021/08/22 06:47:46;;;;;;;14.02;11.02;;;19.60;86.30;;;;;;5031127;28;20029;-79
2021/08/22 06:50:12;;;;;;;15.10;12.45;;;19.60;86.20;;;;;;5031305;28;20024;-78
2021/08/22 06:52:38;;;;;;;13.32;10.82;;;19.60;86.20;;;;;;5031293;28;20477;-79
2021/08/22 06:55:04;;;;;;;14.88;12.45;;;19.60;86.20;;;;;;5031317;28;20021;-79
2021/08/22 06:57:30;;;;;;;12.82;11.32;;;19.60;86.10;;;;;;5032562;28;20079;-79
2021/08/22 07:03:17;;;;;;;13.63;11.20;;;19.50;86.00;;;;;;5032684;28;20115;-79
2021/08/22 07:05:43;;;;;;;17.45;12.02;;;19.50;86.00;;;;;;5030933;28;20117;-79
2021/08/22 07:08:08;;;;;;;12.07;10.82;;;19.50;85.90;;;;;;5032471;28;20478;-78
2021/08/22 07:10:34;;;;;;;13.23;11.50;;;19.50;85.90;;;;;;5035370;28;20017;-79
2021/08/22 07:13:00;;;;;;;14.45;12.40;;;19.50;85.90;;;;;;5034971;28;20071;-79
2021/08/22 07:15:25;;;;;;;14.60;11.75;;;19.50;85.80;;;;;;5036205;28;20485;-79
2021/08/22 07:17:51;;;;;;;14.95;10.88;;;19.50;85.80;;;;;;5036359;28;20029;-78
2021/08/22 07:20:16;;;;;;;12.77;11.10;;;19.50;85.90;;;;;;5034683;28;20025;-79
2021/08/22 07:22:42;;;;;;;13.93;11.50;;;19.50;85.90;;;;;;5034804;28;20044;-78
2021/08/22 07:25:08;;;;;;;14.90;11.73;;;19.40;85.90;;;;;;5034880;28;20051;-78
2021/08/22 07:27:34;;;;;;;18.38;12.40;;;19.40;85.90;;;;;;5034476;28;20470;-78
2021/08/22 07:29:59;;;;;;;16.45;13.05;;;19.40;85.80;;;;;;5034756;28;20022;-78
2021/08/22 07:32:25;;;;;;;14.55;13.00;;;19.40;85.90;;;;;;5035854;28;20029;-78
2021/08/22 07:34:51;;;;;;;14.02;12.52;;;19.40;85.90;;;;;;5034593;28;20021;-79
2021/08/22 07:37:17;;;;;;;14.23;12.48;;;19.40;85.90;;;;;;5034452;28;20023;-79
2021/08/22 07:39:42;;;;;;;14.80;12.18;;;19.40;85.90;;;;;;5034488;28;20017;-78
2021/08/22 07:42:08;;;;;;;14.88;11.98;;;19.40;85.80;;;;;;5034466;28;20515;-79
2021/08/22 07:44:34;;;;;;;12.90;11.60;;;19.50;85.70;;;;;;5034118;28;20036;-78
2021/08/22 07:50:21;;;;;;;12.00;10.70;;;19.50;85.40;;;;;;5035967;28;20024;-79
2021/08/22 07:52:47;;;;;;;13.85;11.88;;;19.50;85.30;;;;;;5035733;28;20017;-78
2021/08/22 07:55:13;;;;;;;12.77;11.48;;;19.60;85.20;;;;;;5034230;28;20025;-78
2021/08/22 07:57:39;;;;;;;12.68;11.15;;;19.60;85.10;;;;;;5034183;28;20079;-78
2021/08/22 08:00:05;;;;;;;11.43;9.70;;;19.70;85.00;;;;;;5033957;28;20021;-78
2021/08/22 08:02:31;;;;;;;12.05;10.77;;;19.80;84.90;;;;;;5067176;28;20033;-78
2021/08/22 08:04:56;;;;;;;12.18;10.80;;;19.80;84.70;;;;;;5033734;28;20549;-78
2021/08/22 08:07:22;;;;;;;11.68;10.13;;;19.80;84.40;;;;;;5035090;28;20025;-78
2021/08/22 08:09:47;;;;;;;12.20;10.52;;;19.80;84.40;;;;;;5033567;28;20474;-78
2021/08/22 08:12:13;;;;;;;11.05;9.95;;;19.90;84.30;;;;;;5033755;28;20028;-78
2021/08/22 08:14:39;;;;;;;9.65;8.63;;;19.90;84.10;;;;;;5034761;28;20064;-78
2021/08/22 08:17:06;;;;;;;11.85;10.50;;;20.00;84.00;;;;;;5033600;28;20082;-78
2021/08/22 08:19:32;;;;;;;10.68;9.27;;;20.10;83.60;;;;;;5033165;28;20030;-79
2021/08/22 08:21:58;;;;;;;10.45;9.18;;;20.10;83.40;;;;;;5066691;28;20394;-78
2021/08/22 08:24:24;;;;;;;10.57;8.95;;;20.10;83.20;;;;;;5066529;28;20060;-77
2021/08/22 08:26:49;;;;;;;9.77;8.20;;;20.20;83.20;;;;;;5066671;28;20021;-77
2021/08/22 08:29:15;;;;;;;9.93;8.85;;;20.20;83.30;;;;;;5033193;28;20160;-78
2021/08/22 08:31:40;;;;;;;9.43;8.50;;;20.30;83.30;;;;;;5066484;28;20022;-78
2021/08/22 08:34:06;;;;;;;11.30;8.73;;;20.40;83.00;;;;;;5033110;28;20049;-78
2021/08/22 08:36:32;;;;;;;9.05;8.07;;;20.40;82.80;;;;;;5034457;28;20060;-78
2021/08/22 08:38:57;;;;;;;8.98;8.07;;;20.50;82.70;;;;;;5066599;28;20436;-78
2021/08/22 08:41:23;;;;;;;10.00;8.93;;;20.50;82.60;;;;;;5034543;28;20141;-78
2021/08/22 08:43:49;;;;;;;8.88;7.88;;;20.50;82.50;;;;;;5034524;28;20021;-78
2021/08/22 08:46:14;;;;;;;8.98;8.07;;;20.60;82.50;;;;;;5032929;28;20025;-78
2021/08/22 08:48:40;;;;;;;11.80;8.60;;;20.60;82.40;;;;;;5066365;28;20035;-78
2021/08/22 08:54:46;;;;;;;9.85;8.90;;;20.60;81.90;;;;;;5034643;28;20083;-78
2021/08/22 08:57:13;;;;;;;;;;;20.50;81.60;;;;;;5066627;28;20033;-78
2021/08/22 08:59:39;;;;;;;10.18;8.98;;;20.50;81.70;;;;;;5033043;28;20363;-78
2021/08/22 09:02:05;;;;;;;11.20;9.90;;;20.40;81.60;;;;;;5034083;28;20076;-78
2021/08/22 09:05:14;;;;;;;9.63;8.68;;;20.30;81.50;;;;;;5065895;28;20108;-78
2021/08/22 09:07:58;;;;;;;10.57;9.48;;;20.30;81.60;;;;;;5012959;28;20034;-78
2021/08/22 09:11:01;;;;;;;9.45;8.45;;;20.30;81.70;;;;;;5033820;28;20062;-77
2021/08/22 09:13:57;;;;;;;8.60;7.70;;;20.40;81.90;;;;;;5065795;28;20032;-78
2021/08/22 09:16:41;;;;;;;9.80;8.80;;;20.50;81.80;;;;;;5065719;28;20543;-78
2021/08/22 09:19:37;;;;;;;9.98;8.98;;;20.60;81.50;;;;;;5033458;28;20033;-78
2021/08/22 09:22:24;;;;;;;8.32;7.47;;;20.80;81.20;;;;;;5065703;28;20026;-78
2021/08/22 09:25:22;;;;;;;11.90;9.00;;;21.00;80.90;;;;;;5065094;28;20057;-78
2021/08/22 09:28:29;;;;;;;9.45;8.45;;;21.10;80.60;;;;;;5065695;28;20495;-78
2021/08/22 09:31:07;;;;;;;8.20;6.75;;;21.30;80.30;;;;;;5033281;28;20029;-78
2021/08/22 09:34:10;;;;;;;8.07;7.28;;;21.40;80.00;;;;;;5033103;28;20071;-78
2021/08/22 09:37:09;;;;;;;7.80;7.10;;;21.60;79.70;;;;;;5033441;28;20029;-78
2021/08/22 09:40:12;;;;;;;8.75;7.95;;;21.60;79.60;;;;;;5065418;28;20388;-78
2021/08/22 09:43:15;;;;;;;8.83;7.93;;;21.50;79.70;;;;;;5033388;28;20048;-78
2021/08/22 09:46:29;;;;;;;8.33;7.17;;;21.50;79.60;;;;;;5033111;28;20378;-78
2021/08/22 09:49:15;;;;;;;9.20;8.03;;;21.50;79.60;;;;;;5065543;28;20091;-78
2021/08/22 09:51:47;;;;;;;7.70;6.82;;;21.50;79.30;;;;;;5033258;28;20037;-76
2021/08/22 09:54:25;;;;;;;8.85;7.68;;;21.50;79.10;;;;;;5065228;28;20485;-75
2021/08/22 09:57:25;;;;;;;8.90;7.90;;;21.50;79.20;;;;;;5065087;28;20116;-75
2021/08/22 10:00:17;;;;;;;8.20;7.40;;;21.40;79.10;;;;;;5064864;28;20029;-75
2021/08/22 10:02:48;;;;;;;8.07;7.28;;;21.30;79.40;;;;;;5033049;28;20064;-75
2021/08/22 10:05:20;;;;;;;8.77;7.88;;;21.30;79.60;;;;;;5033074;28;20044;-77
2021/08/22 10:07:54;;;;;;;8.10;7.40;;;21.30;79.20;;;;;;5032834;28;20100;-77
2021/08/22 10:10:31;;;;;;;7.10;6.40;;;21.30;79.20;;;;;;5064929;28;20124;-77
2021/08/22 10:12:58;;;;;;;7.68;6.88;;;21.30;79.30;;;;;;5064823;28;20507;-77
2021/08/22 10:15:24;;;;;;;7.38;6.63;;;21.40;79.10;;;;;;5064804;28;20021;-77
2021/08/22 10:17:50;;;;;;;9.85;6.65;;;21.40;78.70;;;;;;5032626;28;20539;-77
2021/08/22 10:20:17;;;;;;;7.47;6.78;;;21.50;78.60;;;;;;5032596;28;20037;-76
2021/08/22 10:22:43;;;;;;;8.77;6.88;;;21.40;78.50;;;;;;5064704;28;20029;-77
2021/08/22 10:25:12;;;;;;;7.70;6.95;;;21.30;78.60;;;;;;5064539;28;20045;-76
2021/08/22 10:27:41;;;;;;;8.82;6.75;;;21.30;78.70;;;;;;5032683;28;20432;-77
2021/08/22 10:30:12;;;;;;;6.93;6.32;;;21.20;78.80;;;;;;5032584;28;20018;-77
2021/08/22 10:32:56;;;;;;;7.70;6.97;;;21.10;79.00;;;;;;5064682;28;20025;-77
2021/08/22 10:35:23;;;;;;;7.22;6.47;;;21.10;79.10;;;;;;5064544;28;20038;-77
2021/08/22 10:37:48;;;;;;;8.02;7.22;;;21.10;79.20;;;;;;5064317;28;20041;-77
2021/08/22 10:40:23;;;;;;;7.03;6.38;;;21.10;79.20;;;;;;5064493;28;20398;-77
2021/08/22 10:43:09;;;;;;;7.95;7.20;;;21.10;79.20;;;;;;5064703;28;20446;-77
2021/08/22 10:45:40;;;;;;;9.13;7.97;;;21.00;79.20;;;;;;5068573;28;20033;-76
2021/08/22 10:48:16;;;;;;;8.73;7.82;;;21.00;79.30;;;;;;5036486;28;20499;-76
2021/08/22 10:50:57;;;;;;;7.93;7.03;;;20.90;79.40;;;;;;5068515;28;20374;-76
2021/08/22 10:53:27;;;;;;;9.30;7.90;;;20.90;79.40;;;;;;5068311;28;20029;-76
2021/08/22 10:55:54;;;;;;;8.68;7.88;;;20.90;79.40;;;;;;5068357;28;20033;-76
2021/08/22 10:58:20;;;;;;;9.48;7.60;;;20.90;79.40;;;;;;5068420;28;20029;-76
2021/08/22 11:00:46;;;;;;;10.25;8.07;;;20.90;79.30;;;;;;5036338;28;20033;-76
2021/08/22 11:03:19;;;;;;;8.07;7.25;;;20.90;79.10;;;;;;5035358;28;20037;-76
2021/08/22 11:05:45;;;;;;;8.05;7.25;;;20.90;79.20;;;;;;5036121;28;20061;-77
2021/08/22 11:08:20;;;;;;;7.45;6.72;;;20.90;79.30;;;;;;5036447;28;20036;-77
2021/08/22 11:11:00;;;;;;;7.13;6.53;;;21.00;79.30;;;;;;5068116;28;20044;-77
2021/08/22 11:13:29;;;;;;;6.38;5.78;;;21.10;79.30;;;;;;5036139;28;20366;-77
2021/08/22 11:15:55;;;;;;;6.53;5.93;;;21.20;79.20;;;;;;5068054;28;20038;-77
2021/08/22 11:18:21;;;;;;;6.20;5.70;;;21.30;78.80;;;;;;5034859;28;20370;-77
2021/08/22 11:20:47;;;;;;;6.93;6.30;;;21.40;78.60;;;;;;5035964;28;20112;-77
2021/08/22 11:23:17;;;;;;;7.35;6.65;;;21.50;78.40;;;;;;5071659;28;20130;-76
2021/08/22 11:25:45;;;;;;;7.00;6.35;;;21.50;78.20;;;;;;5057720;28;20036;-76
2021/08/22 11:28:12;;;;;;;5.95;5.45;;;21.50;78.30;;;;;;5057759;28;20124;-74
2021/08/22 11:30:39;;;;;;;7.38;6.68;;;21.50;78.30;;;;;;5057725;28;20021;-74
2021/08/22 11:33:05;;;;;;;7.05;6.35;;;21.60;78.10;;;;;;5075518;28;20035;-74
2021/08/22 11:35:35;;;;;;;6.28;5.78;;;21.70;78.00;;;;;;5075831;28;20054;-77
2021/08/22 11:38:01;;;;;;;7.18;6.57;;;21.70;78.00;;;;;;5057526;28;20078;-76
2021/08/22 11:40:28;;;;;;;7.22;6.60;;;21.70;78.00;;;;;;5076004;28;20032;-77
2021/08/22 11:42:58;;;;;;;7.70;7.00;;;21.80;78.00;;;;;;5057920;28;20442;-77
2021/08/22 11:45:30;;;;;;;7.60;6.90;;;21.90;77.70;;;;;;5075712;28;20030;-76
2021/08/22 11:47:56;;;;;;;8.27;7.55;;;22.10;77.40;;;;;;5090985;28;20024;-75
2021/08/22 11:50:28;;;;;;;8.50;7.70;;;22.20;76.80;;;;;;5077949;28;20029;-75
2021/08/22 11:52:55;;;;;;;7.55;6.80;;;22.40;76.10;;;;;;5057816;28;20119;-77
2021/08/22 11:55:22;;;;;;;6.78;6.18;;;22.60;75.90;;;;;;5056324;28;20392;-77
2021/08/22 11:57:48;;;;;;;7.22;6.30;;;22.80;75.40;;;;;;5075085;28;20039;-76
2021/08/22 12:00:18;;;;;;;6.78;6.18;;;22.90;75.80;;;;;;5057264;28;20024;-76
2021/08/22 12:02:59;;;;;;;6.40;5.80;;;22.90;74.90;;;;;;5075107;28;20499;-77
2021/08/22 12:05:25;;;;;;;7.72;6.57;;;23.00;74.50;;;;;;5056922;28;20395;-76
2021/08/22 12:08:07;;;;;;;6.93;6.32;;;23.10;74.60;;;;;;5074904;28;20063;-76
2021/08/22 12:10:40;;;;;;;7.38;6.60;;;23.10;74.10;;;;;;5074924;28;20082;-76
2021/08/22 12:13:20;;;;;;;6.70;6.05;;;23.10;74.10;;;;;;5074797;28;20173;-77
2021/08/22 12:15:51;;;;;;;6.80;6.20;;;23.10;74.00;;;;;;5074886;28;20070;-76
2021/08/22 12:18:17;;;;;;;6.90;6.30;;;23.10;74.00;;;;;;5056860;28;20500;-75
2021/08/22 12:20:43;;;;;;;7.10;6.50;;;23.00;74.00;;;;;;5056840;28;20071;-75
2021/08/22 12:23:11;;;;;;;6.65;6.05;;;23.10;74.00;;;;;;5074520;28;20480;-76
2021/08/22 12:25:40;;;;;;;7.25;6.65;;;23.10;73.80;;;;;;5074700;28;20097;-75
2021/08/22 12:28:23;;;;;;;7.07;6.43;;;23.10;73.60;;;;;;5074628;28;20025;-75
2021/08/22 12:31:09;;;;;;;7.22;6.53;;;23.10;73.40;;;;;;5056522;28;20036;-75
2021/08/22 12:33:39;;;;;;;7.10;6.35;;;23.10;73.30;;;;;;5056470;28;20395;-75
2021/08/22 12:36:16;;;;;;;6.38;5.80;;;23.10;73.10;;;;;;5074401;28;20430;-75
2021/08/22 12:38:44;;;;;;;6.35;5.75;;;23.10;72.80;;;;;;5056400;28;20115;-76
2021/08/22 12:41:36;;;;;;;6.88;6.18;;;23.10;72.80;;;;;;5074386;28;20033;-76
2021/08/22 12:44:05;;;;;;;7.15;6.55;;;23.00;72.50;;;;;;5074150;28;20101;-75
2021/08/22 12:46:33;;;;;;;6.40;5.80;;;22.90;72.50;;;;;;5056101;28;20031;-75
2021/08/22 12:48:59;;;;;;;6.88;6.18;;;22.80;72.70;;;;;;5074004;28;20050;-76
2021/08/22 12:51:25;;;;;;;7.18;6.47;;;22.80;72.40;;;;;;5074005;28;20044;-76
2021/08/22 12:53:52;;;;;;;7.45;6.43;;;22.80;72.40;;;;;;5073930;28;20017;-76
2021/08/22 12:56:17;;;;;;;6.07;5.53;;;22.90;72.20;;;;;;5056076;28;20025;-76
2021/08/22 12:58:43;;;;;;;6.18;5.60;;;22.90;72.40;;;;;;5056037;28;20108;-74
2021/08/22 13:01:09;;;;;;;6.47;5.20;;;22.90;72.30;;;;;;5073957;28;20032;-74